sensor_id;sensor_type;location;lat;lon;timestamp;temperature;humidity
75652;HTU21D;64248;43.602;39.724;2022-10-16T09:57:54;29.01;44.29
75652;HTU21D;64248;43.602;39.724;2022-10-16T10:00:22;29.09;44.15
75652;HTU21D;64248;43.602;39.724;2022-10-16T10:02:48;29.26;44.34
75652;HTU21D;64248;43.602;39.724;2022-10-16T10:05:25;29.41;43.80
75652;HTU21D;64248;43.602;39.724;2022-10-16T10:07:58;29.49;43.10
75652;HTU21D;64248;43.602;39.724;2022-10-16T10:10:30;29.56;43.19
75652;HTU21D;64248;43.602;39.724;2022-10-16T10:12:56;29.53;42.87
75652;HTU21D;64248;43.602;39.724;2022-10-16T10:15:23;29.49;42.89
75652;HTU21D;64248;43.602;39.724;2022-10-16T10:17:59;29.41;43.48
75652;HTU21D;64248;43.602;39.724;2022-10-16T10:20:29;29.21;43.58
75652;HTU21D;64248;43.602;39.724;2022-10-16T10:22:58;28.69;44.35
75652;HTU21D;64248;43.602;39.724;2022-10-16T10:25:39;28.13;45.35
75652;HTU21D;64248;43.602;39.724;2022-10-16T10:31:17;27.15;47.25
75652;HTU21D;64248;43.602;39.724;2022-10-16T10:33:45;0.00;47.20
75652;HTU21D;64248;43.602;39.724;2022-10-16T10:36:35;26.49;48.68
75652;HTU21D;64248;43.602;39.724;2022-10-16T10:50:39;25.82;50.69
75652;HTU21D;64248;43.602;39.724;2022-10-16T10:53:38;25.66;50.82
75652;HTU21D;64248;43.602;39.724;2022-10-16T11:01:59;25.15;51.69
75652;HTU21D;64248;43.602;39.724;2022-10-16T11:07:54;24.84;52.14
75652;HTU21D;64248;43.602;39.724;2022-10-16T11:16:03;24.49;53.10
75652;HTU21D;64248;43.602;39.724;2022-10-16T11:18:45;24.39;53.34
75652;HTU21D;64248;43.602;39.724;2022-10-16T11:21:16;24.30;53.71
75652;HTU21D;64248;43.602;39.724;2022-10-16T11:26:17;24.18;54.20
75652;HTU21D;64248;43.602;39.724;2022-10-16T11:28:53;24.14;54.33
75652;HTU21D;64248;43.602;39.724;2022-10-16T11:34:12;24.05;54.13
75652;HTU21D;64248;43.602;39.724;2022-10-16T11:36:51;23.99;54.58
75652;HTU21D;64248;43.602;39.724;2022-10-16T11:39:25;23.99;54.66
75652;HTU21D;64248;43.602;39.724;2022-10-16T11:42:07;24.01;54.77
75652;HTU21D;64248;43.602;39.724;2022-10-16T11:44:55;24.00;54.67
75652;HTU21D;64248;43.602;39.724;2022-10-16T11:47:45;23.99;54.81
75652;HTU21D;64248;43.602;39.724;2022-10-16T11:55:43;23.92;55.10
75652;HTU21D;64248;43.602;39.724;2022-10-16T11:58:29;23.89;55.24
75652;HTU21D;64248;43.602;39.724;2022-10-16T12:01:10;23.87;55.40
75652;HTU21D;64248;43.602;39.724;2022-10-16T12:03:48;23.85;55.41
75652;HTU21D;64248;43.602;39.724;2022-10-16T12:06:40;23.82;55.46
75652;HTU21D;64248;43.602;39.724;2022-10-16T12:09:15;23.80;55.62
75652;HTU21D;64248;43.602;39.724;2022-10-16T12:11:41;23.79;55.81
75652;HTU21D;64248;43.602;39.724;2022-10-16T12:16:50;23.80;56.21
75652;HTU21D;64248;43.602;39.724;2022-10-16T12:19:17;23.80;56.28
75652;HTU21D;64248;43.602;39.724;2022-10-16T12:21:44;23.77;56.45
75652;HTU21D;64248;43.602;39.724;2022-10-16T12:24:36;23.75;56.44
75652;HTU21D;64248;43.602;39.724;2022-10-16T12:27:05;23.76;56.74
75652;HTU21D;64248;43.602;39.724;2022-10-16T12:29:39;23.82;56.63
75652;HTU21D;64248;43.602;39.724;2022-10-16T12:34:52;23.87;56.77
75652;HTU21D;64248;43.602;39.724;2022-10-16T12:37:24;23.89;56.68
75652;HTU21D;64248;43.602;39.724;2022-10-16T12:39:52;23.90;56.69
75652;HTU21D;64248;43.602;39.724;2022-10-16T12:44:55;23.90;56.91
75652;HTU21D;64248;43.602;39.724;2022-10-16T12:49:57;23.88;57.30
75652;HTU21D;64248;43.602;39.724;2022-10-16T12:52:37;23.87;57.03
75652;HTU21D;64248;43.602;39.724;2022-10-16T12:55:05;23.82;57.32
75652;HTU21D;64248;43.602;39.724;2022-10-16T13:00:44;23.70;57.46
75652;HTU21D;64248;43.602;39.724;2022-10-16T13:03:29;23.65;57.75
75652;HTU21D;64248;43.602;39.724;2022-10-16T13:06:05;23.58;57.96
75652;HTU21D;64248;43.602;39.724;2022-10-16T13:22:55;23.27;58.33
75652;HTU21D;64248;43.602;39.724;2022-10-16T13:28:03;23.25;58.73
75652;HTU21D;64248;43.602;39.724;2022-10-16T13:30:39;23.21;58.96
75652;HTU21D;64248;43.602;39.724;2022-10-16T13:35:51;23.21;58.95
75652;HTU21D;64248;43.602;39.724;2022-10-16T13:38:20;23.18;59.15
75652;HTU21D;64248;43.602;39.724;2022-10-16T13:41:04;23.16;59.08
75652;HTU21D;64248;43.602;39.724;2022-10-16T13:43:46;23.16;59.13
75652;HTU21D;64248;43.602;39.724;2022-10-16T13:46:23;23.13;59.25
75652;HTU21D;64248;43.602;39.724;2022-10-16T13:49:00;23.11;59.27
75652;HTU21D;64248;43.602;39.724;2022-10-16T13:51:27;23.09;59.57
75652;HTU21D;64248;43.602;39.724;2022-10-16T13:53:55;23.06;59.63
75652;HTU21D;64248;43.602;39.724;2022-10-16T13:56:25;23.03;59.74
75652;HTU21D;64248;43.602;39.724;2022-10-16T13:59:22;23.03;59.61
75652;HTU21D;64248;43.602;39.724;2022-10-16T14:01:48;23.00;59.90
75652;HTU21D;64248;43.602;39.724;2022-10-16T14:04:15;22.97;60.02
75652;HTU21D;64248;43.602;39.724;2022-10-16T14:06:44;22.97;60.06
75652;HTU21D;64248;43.602;39.724;2022-10-16T14:09:20;22.95;60.18
75652;HTU21D;64248;43.602;39.724;2022-10-16T14:11:53;22.91;60.17
75652;HTU21D;64248;43.602;39.724;2022-10-16T14:14:20;22.90;60.33
75652;HTU21D;64248;43.602;39.724;2022-10-16T14:16:47;22.87;60.51
75652;HTU21D;64248;43.602;39.724;2022-10-16T14:19:23;22.86;60.42
75652;HTU21D;64248;43.602;39.724;2022-10-16T14:21:51;22.83;60.66
75652;HTU21D;64248;43.602;39.724;2022-10-16T14:26:57;22.80;60.85
75652;HTU21D;64248;43.602;39.724;2022-10-16T14:29:25;22.78;60.96
75652;HTU21D;64248;43.602;39.724;2022-10-16T14:34:23;22.71;60.37
75652;HTU21D;64248;43.602;39.724;2022-10-16T14:36:50;22.68;60.96
75652;HTU21D;64248;43.602;39.724;2022-10-16T14:39:22;22.64;61.02
75652;HTU21D;64248;43.602;39.724;2022-10-16T14:41:51;22.63;61.32
75652;HTU21D;64248;43.602;39.724;2022-10-16T14:44:18;22.62;61.45
75652;HTU21D;64248;43.602;39.724;2022-10-16T14:46:45;22.60;61.50
75652;HTU21D;64248;43.602;39.724;2022-10-16T14:51:38;22.58;61.81
75652;HTU21D;64248;43.602;39.724;2022-10-16T14:54:09;22.57;61.98
75652;HTU21D;64248;43.602;39.724;2022-10-16T14:59:20;22.56;62.03
75652;HTU21D;64248;43.602;39.724;2022-10-16T15:01:47;22.57;62.15
75652;HTU21D;64248;43.602;39.724;2022-10-16T15:04:14;22.58;62.10
75652;HTU21D;64248;43.602;39.724;2022-10-16T15:06:41;22.61;62.06
75652;HTU21D;64248;43.602;39.724;2022-10-16T15:09:07;22.63;62.04
75652;HTU21D;64248;43.602;39.724;2022-10-16T15:11:33;22.64;61.99
75652;HTU21D;64248;43.602;39.724;2022-10-16T15:13:59;22.66;61.97
75652;HTU21D;64248;43.602;39.724;2022-10-16T15:16:25;22.67;61.95
75652;HTU21D;64248;43.602;39.724;2022-10-16T15:18:51;22.67;61.92
75652;HTU21D;64248;43.602;39.724;2022-10-16T15:21:25;22.67;61.87
75652;HTU21D;64248;43.602;39.724;2022-10-16T15:23:53;22.66;62.06
75652;HTU21D;64248;43.602;39.724;2022-10-16T15:26:19;22.67;62.04
75652;HTU21D;64248;43.602;39.724;2022-10-16T15:28:44;22.68;62.05
75652;HTU21D;64248;43.602;39.724;2022-10-16T15:31:10;22.69;61.95
75652;HTU21D;64248;43.602;39.724;2022-10-16T15:33:36;22.68;61.93
75652;HTU21D;64248;43.602;39.724;2022-10-16T15:36:03;22.65;61.95
75652;HTU21D;64248;43.602;39.724;2022-10-16T15:38:29;22.63;61.88
75652;HTU21D;64248;43.602;39.724;2022-10-16T15:40:56;22.60;61.92
75652;HTU21D;64248;43.602;39.724;2022-10-16T15:43:22;22.55;61.99
75652;HTU21D;64248;43.602;39.724;2022-10-16T15:46:05;22.52;61.91
75652;HTU21D;64248;43.602;39.724;2022-10-16T15:48:34;22.49;62.08
75652;HTU21D;64248;43.602;39.724;2022-10-16T15:51:00;22.44;62.13
75652;HTU21D;64248;43.602;39.724;2022-10-16T15:53:30;22.41;62.21
75652;HTU21D;64248;43.602;39.724;2022-10-16T15:55:55;22.39;62.36
75652;HTU21D;64248;43.602;39.724;2022-10-16T15:58:21;22.38;62.36
75652;HTU21D;64248;43.602;39.724;2022-10-16T16:00:58;22.36;62.28
75652;HTU21D;64248;43.602;39.724;2022-10-16T16:03:27;22.34;62.48
75652;HTU21D;64248;43.602;39.724;2022-10-16T16:05:53;22.32;62.53
75652;HTU21D;64248;43.602;39.724;2022-10-16T16:08:19;22.28;62.65
75652;HTU21D;64248;43.602;39.724;2022-10-16T16:10:45;22.27;62.69
75652;HTU21D;64248;43.602;39.724;2022-10-16T16:13:11;22.25;62.72
75652;HTU21D;64248;43.602;39.724;2022-10-16T16:15:40;22.24;62.66
75652;HTU21D;64248;43.602;39.724;2022-10-16T16:18:06;22.21;62.82
75652;HTU21D;64248;43.602;39.724;2022-10-16T16:20:34;22.20;62.89
75652;HTU21D;64248;43.602;39.724;2022-10-16T16:23:00;22.18;62.95
75652;HTU21D;64248;43.602;39.724;2022-10-16T16:25:26;22.14;63.03
75652;HTU21D;64248;43.602;39.724;2022-10-16T16:27:53;22.16;63.12
75652;HTU21D;64248;43.602;39.724;2022-10-16T16:30:19;22.17;63.14
75652;HTU21D;64248;43.602;39.724;2022-10-16T16:32:46;22.13;63.14
75652;HTU21D;64248;43.602;39.724;2022-10-16T16:35:12;22.13;63.17
75652;HTU21D;64248;43.602;39.724;2022-10-16T16:37:38;22.12;63.17
75652;HTU21D;64248;43.602;39.724;2022-10-16T16:40:04;22.11;63.16
75652;HTU21D;64248;43.602;39.724;2022-10-16T16:42:30;22.10;63.21
75652;HTU21D;64248;43.602;39.724;2022-10-16T16:44:56;22.10;63.21
75652;HTU21D;64248;43.602;39.724;2022-10-16T16:47:22;22.09;63.24
75652;HTU21D;64248;43.602;39.724;2022-10-16T16:49:48;22.09;63.24
75652;HTU21D;64248;43.602;39.724;2022-10-16T16:52:15;22.08;63.27
75652;HTU21D;64248;43.602;39.724;2022-10-16T16:54:41;22.08;63.30
75652;HTU21D;64248;43.602;39.724;2022-10-16T16:57:07;22.07;63.29
75652;HTU21D;64248;43.602;39.724;2022-10-16T16:59:33;22.05;63.21
75652;HTU21D;64248;43.602;39.724;2022-10-16T17:01:59;22.06;63.31
75652;HTU21D;64248;43.602;39.724;2022-10-16T17:04:25;22.05;63.21
75652;HTU21D;64248;43.602;39.724;2022-10-16T17:06:55;22.06;63.16
75652;HTU21D;64248;43.602;39.724;2022-10-16T17:09:22;22.02;63.24
75652;HTU21D;64248;43.602;39.724;2022-10-16T17:11:48;21.99;63.18
75652;HTU21D;64248;43.602;39.724;2022-10-16T17:14:18;21.96;63.28
75652;HTU21D;64248;43.602;39.724;2022-10-16T17:16:44;21.90;63.28
75652;HTU21D;64248;43.602;39.724;2022-10-16T17:19:16;21.83;63.31
75652;HTU21D;64248;43.602;39.724;2022-10-16T17:21:43;21.80;63.57
75652;HTU21D;64248;43.602;39.724;2022-10-16T17:24:09;21.79;63.72
75652;HTU21D;64248;43.602;39.724;2022-10-16T17:26:36;21.80;63.75
75652;HTU21D;64248;43.602;39.724;2022-10-16T17:29:03;21.82;63.75
75652;HTU21D;64248;43.602;39.724;2022-10-16T17:31:31;21.83;63.76
75652;HTU21D;64248;43.602;39.724;2022-10-16T17:33:59;21.82;63.76
75652;HTU21D;64248;43.602;39.724;2022-10-16T17:36:26;21.83;63.74
75652;HTU21D;64248;43.602;39.724;2022-10-16T17:38:58;21.83;63.73
75652;HTU21D;64248;43.602;39.724;2022-10-16T17:41:26;21.84;63.77
75652;HTU21D;64248;43.602;39.724;2022-10-16T17:43:52;21.83;63.76
75652;HTU21D;64248;43.602;39.724;2022-10-16T17:46:20;21.84;63.74
75652;HTU21D;64248;43.602;39.724;2022-10-16T17:48:49;21.87;63.71
75652;HTU21D;64248;43.602;39.724;2022-10-16T17:51:18;21.87;63.60
75652;HTU21D;64248;43.602;39.724;2022-10-16T17:53:49;21.91;63.50
75652;HTU21D;64248;43.602;39.724;2022-10-16T17:56:15;21.93;63.46
75652;HTU21D;64248;43.602;39.724;2022-10-16T17:58:41;21.93;63.37
75652;HTU21D;64248;43.602;39.724;2022-10-16T18:01:18;21.96;63.27
75652;HTU21D;64248;43.602;39.724;2022-10-16T18:03:51;21.98;63.28
75652;HTU21D;64248;43.602;39.724;2022-10-16T18:06:19;21.97;63.28
75652;HTU21D;64248;43.602;39.724;2022-10-16T18:08:45;21.99;63.59
75652;HTU21D;64248;43.602;39.724;2022-10-16T18:11:10;22.07;63.55
75652;HTU21D;64248;43.602;39.724;2022-10-16T18:13:36;22.18;63.39
75652;HTU21D;64248;43.602;39.724;2022-10-16T18:16:05;22.25;63.21
75652;HTU21D;64248;43.602;39.724;2022-10-16T18:18:34;22.27;62.88
75652;HTU21D;64248;43.602;39.724;2022-10-16T18:21:02;22.28;62.61
75652;HTU21D;64248;43.602;39.724;2022-10-16T18:23:29;22.22;62.58
75652;HTU21D;64248;43.602;39.724;2022-10-16T18:25:55;22.18;62.65
75652;HTU21D;64248;43.602;39.724;2022-10-16T18:28:22;22.12;62.75
75652;HTU21D;64248;43.602;39.724;2022-10-16T18:30:57;22.05;62.73
75652;HTU21D;64248;43.602;39.724;2022-10-16T18:33:24;22.02;62.95
75652;HTU21D;64248;43.602;39.724;2022-10-16T18:35:51;21.95;63.00
75652;HTU21D;64248;43.602;39.724;2022-10-16T18:38:19;21.90;63.21
75652;HTU21D;64248;43.602;39.724;2022-10-16T18:40:46;21.87;63.08
75652;HTU21D;64248;43.602;39.724;2022-10-16T18:43:12;21.81;63.15
75652;HTU21D;64248;43.602;39.724;2022-10-16T18:45:38;21.77;63.13
75652;HTU21D;64248;43.602;39.724;2022-10-16T18:48:04;21.69;63.20
75652;HTU21D;64248;43.602;39.724;2022-10-16T18:50:31;21.64;63.51
75652;HTU21D;64248;43.602;39.724;2022-10-16T18:52:57;21.62;63.75
75652;HTU21D;64248;43.602;39.724;2022-10-16T18:55:24;21.63;63.74
75652;HTU21D;64248;43.602;39.724;2022-10-16T18:57:51;21.63;63.65
75652;HTU21D;64248;43.602;39.724;2022-10-16T19:00:17;21.60;63.61
75652;HTU21D;64248;43.602;39.724;2022-10-16T19:02:43;21.59;63.71
75652;HTU21D;64248;43.602;39.724;2022-10-16T19:05:09;21.54;63.78
75652;HTU21D;64248;43.602;39.724;2022-10-16T19:07:35;21.51;63.81
75652;HTU21D;64248;43.602;39.724;2022-10-16T19:10:02;21.49;63.88
75652;HTU21D;64248;43.602;39.724;2022-10-16T19:12:29;21.45;63.82
75652;HTU21D;64248;43.602;39.724;2022-10-16T19:14:55;21.42;63.90
75652;HTU21D;64248;43.602;39.724;2022-10-16T19:17:21;21.39;63.98
75652;HTU21D;64248;43.602;39.724;2022-10-16T19:19:47;21.36;64.03
75652;HTU21D;64248;43.602;39.724;2022-10-16T19:22:13;21.34;64.09
75652;HTU21D;64248;43.602;39.724;2022-10-16T19:24:52;21.31;64.14
75652;HTU21D;64248;43.602;39.724;2022-10-16T19:27:19;21.28;64.19
75652;HTU21D;64248;43.602;39.724;2022-10-16T19:29:44;21.28;64.24
75652;HTU21D;64248;43.602;39.724;2022-10-16T19:32:11;21.23;64.29
75652;HTU21D;64248;43.602;39.724;2022-10-16T19:34:37;21.21;64.39
75652;HTU21D;64248;43.602;39.724;2022-10-16T19:37:03;21.20;64.49
75652;HTU21D;64248;43.602;39.724;2022-10-16T19:39:30;21.18;64.56
75652;HTU21D;64248;43.602;39.724;2022-10-16T19:41:56;21.15;64.49
75652;HTU21D;64248;43.602;39.724;2022-10-16T19:44:22;21.07;64.40
75652;HTU21D;64248;43.602;39.724;2022-10-16T19:46:48;20.96;64.49
75652;HTU21D;64248;43.602;39.724;2022-10-16T19:49:15;20.81;64.66
75652;HTU21D;64248;43.602;39.724;2022-10-16T19:51:46;20.70;64.83
75652;HTU21D;64248;43.602;39.724;2022-10-16T19:54:13;20.58;65.04
75652;HTU21D;64248;43.602;39.724;2022-10-16T19:56:39;20.48;65.27
75652;HTU21D;64248;43.602;39.724;2022-10-16T19:59:07;20.40;65.41
75652;HTU21D;64248;43.602;39.724;2022-10-16T20:01:33;20.30;65.60
75652;HTU21D;64248;43.602;39.724;2022-10-16T20:03:59;20.20;65.85
75652;HTU21D;64248;43.602;39.724;2022-10-16T20:06:26;20.13;66.01
75652;HTU21D;64248;43.602;39.724;2022-10-16T20:08:53;20.05;66.19
75652;HTU21D;64248;43.602;39.724;2022-10-16T20:11:22;19.98;66.38
75652;HTU21D;64248;43.602;39.724;2022-10-16T20:13:49;19.92;66.56
75652;HTU21D;64248;43.602;39.724;2022-10-16T20:16:16;19.87;66.73
75652;HTU21D;64248;43.602;39.724;2022-10-16T20:18:44;19.81;66.91
75652;HTU21D;64248;43.602;39.724;2022-10-16T20:21:13;19.75;67.02
75652;HTU21D;64248;43.602;39.724;2022-10-16T20:23:40;19.70;67.11
75652;HTU21D;64248;43.602;39.724;2022-10-16T20:26:06;19.68;67.24
75652;HTU21D;64248;43.602;39.724;2022-10-16T20:28:37;19.65;67.36
75652;HTU21D;64248;43.602;39.724;2022-10-16T20:31:08;19.58;67.45
75652;HTU21D;64248;43.602;39.724;2022-10-16T20:33:35;19.55;67.53
75652;HTU21D;64248;43.602;39.724;2022-10-16T20:36:02;19.52;67.63
75652;HTU21D;64248;43.602;39.724;2022-10-16T20:38:28;19.48;67.75
75652;HTU21D;64248;43.602;39.724;2022-10-16T20:40:54;19.45;67.83
75652;HTU21D;64248;43.602;39.724;2022-10-16T20:43:20;19.43;67.94
75652;HTU21D;64248;43.602;39.724;2022-10-16T20:45:46;19.41;68.05
75652;HTU21D;64248;43.602;39.724;2022-10-16T20:48:13;19.40;68.08
75652;HTU21D;64248;43.602;39.724;2022-10-16T20:50:40;19.38;68.19
75652;HTU21D;64248;43.602;39.724;2022-10-16T20:53:06;19.35;68.27
75652;HTU21D;64248;43.602;39.724;2022-10-16T20:55:35;19.33;68.33
75652;HTU21D;64248;43.602;39.724;2022-10-16T20:58:03;19.30;68.39
75652;HTU21D;64248;43.602;39.724;2022-10-16T21:00:29;19.28;68.44
75652;HTU21D;64248;43.602;39.724;2022-10-16T21:02:56;19.27;68.46
75652;HTU21D;64248;43.602;39.724;2022-10-16T21:05:22;19.26;68.59
75652;HTU21D;64248;43.602;39.724;2022-10-16T21:07:48;19.24;68.67
75652;HTU21D;64248;43.602;39.724;2022-10-16T21:10:14;19.21;68.69
75652;HTU21D;64248;43.602;39.724;2022-10-16T21:12:40;19.17;68.77
75652;HTU21D;64248;43.602;39.724;2022-10-16T21:15:06;19.15;68.85
75652;HTU21D;64248;43.602;39.724;2022-10-16T21:17:32;19.13;68.91
75652;HTU21D;64248;43.602;39.724;2022-10-16T21:19:58;19.10;69.01
75652;HTU21D;64248;43.602;39.724;2022-10-16T21:22:28;19.08;69.04
75652;HTU21D;64248;43.602;39.724;2022-10-16T21:24:54;19.07;69.08
75652;HTU21D;64248;43.602;39.724;2022-10-16T21:27:20;19.05;69.14
75652;HTU21D;64248;43.602;39.724;2022-10-16T21:29:46;19.05;69.19
75652;HTU21D;64248;43.602;39.724;2022-10-16T21:32:12;19.01;69.25
75652;HTU21D;64248;43.602;39.724;2022-10-16T21:34:38;18.99;69.32
75652;HTU21D;64248;43.602;39.724;2022-10-16T21:37:04;18.97;69.33
75652;HTU21D;64248;43.602;39.724;2022-10-16T21:39:30;18.96;69.37
75652;HTU21D;64248;43.602;39.724;2022-10-16T21:41:56;18.94;69.43
75652;HTU21D;64248;43.602;39.724;2022-10-16T21:44:22;18.92;69.49
75652;HTU21D;64248;43.602;39.724;2022-10-16T21:46:49;18.91;69.52
75652;HTU21D;64248;43.602;39.724;2022-10-16T21:49:16;18.89;69.55
75652;HTU21D;64248;43.602;39.724;2022-10-16T21:51:50;18.88;69.61
75652;HTU21D;64248;43.602;39.724;2022-10-16T21:54:21;18.86;69.65
75652;HTU21D;64248;43.602;39.724;2022-10-16T21:56:47;18.85;69.67
75652;HTU21D;64248;43.602;39.724;2022-10-16T21:59:14;18.83;69.71
75652;HTU21D;64248;43.602;39.724;2022-10-16T22:01:41;18.82;69.74
75652;HTU21D;64248;43.602;39.724;2022-10-16T22:04:09;18.80;69.81
75652;HTU21D;64248;43.602;39.724;2022-10-16T22:06:35;18.79;69.89
75652;HTU21D;64248;43.602;39.724;2022-10-16T22:09:02;18.78;69.98
75652;HTU21D;64248;43.602;39.724;2022-10-16T22:11:32;18.76;70.05
75652;HTU21D;64248;43.602;39.724;2022-10-16T22:14:03;18.73;70.05
75652;HTU21D;64248;43.602;39.724;2022-10-16T22:16:30;18.71;70.07
75652;HTU21D;64248;43.602;39.724;2022-10-16T22:18:57;18.70;70.11
75652;HTU21D;64248;43.602;39.724;2022-10-16T22:21:26;18.70;70.20
75652;HTU21D;64248;43.602;39.724;2022-10-16T22:23:53;18.69;70.22
75652;HTU21D;64248;43.602;39.724;2022-10-16T22:26:19;18.68;70.26
75652;HTU21D;64248;43.602;39.724;2022-10-16T22:28:45;18.67;70.28
75652;HTU21D;64248;43.602;39.724;2022-10-16T22:31:12;18.65;70.38
75652;HTU21D;64248;43.602;39.724;2022-10-16T22:33:38;18.66;70.41
75652;HTU21D;64248;43.602;39.724;2022-10-16T22:36:06;18.65;70.42
75652;HTU21D;64248;43.602;39.724;2022-10-16T22:38:34;18.63;70.43
75652;HTU21D;64248;43.602;39.724;2022-10-16T22:41:01;18.62;70.46
75652;HTU21D;64248;43.602;39.724;2022-10-16T22:43:27;18.59;70.50
75652;HTU21D;64248;43.602;39.724;2022-10-16T22:45:53;18.58;70.52
75652;HTU21D;64248;43.602;39.724;2022-10-16T22:48:19;18.56;70.57
75652;HTU21D;64248;43.602;39.724;2022-10-16T22:50:49;18.55;70.61
75652;HTU21D;64248;43.602;39.724;2022-10-16T22:53:15;18.53;70.59
75652;HTU21D;64248;43.602;39.724;2022-10-16T22:55:41;18.53;70.61
75652;HTU21D;64248;43.602;39.724;2022-10-16T22:58:07;18.51;70.67
75652;HTU21D;64248;43.602;39.724;2022-10-16T23:00:33;18.50;70.68
75652;HTU21D;64248;43.602;39.724;2022-10-16T23:02:59;18.50;70.70
75652;HTU21D;64248;43.602;39.724;2022-10-16T23:05:25;18.50;70.72
75652;HTU21D;64248;43.602;39.724;2022-10-16T23:07:50;18.49;70.70
75652;HTU21D;64248;43.602;39.724;2022-10-16T23:10:16;18.47;70.74
75652;HTU21D;64248;43.602;39.724;2022-10-16T23:12:43;18.46;70.74
75652;HTU21D;64248;43.602;39.724;2022-10-16T23:15:10;18.46;70.71
75652;HTU21D;64248;43.602;39.724;2022-10-16T23:17:36;18.44;70.74
75652;HTU21D;64248;43.602;39.724;2022-10-16T23:20:03;18.44;70.74
75652;HTU21D;64248;43.602;39.724;2022-10-16T23:22:29;18.42;70.74
75652;HTU21D;64248;43.602;39.724;2022-10-16T23:24:55;18.42;70.69
75652;HTU21D;64248;43.602;39.724;2022-10-16T23:27:21;18.43;70.75
75652;HTU21D;64248;43.602;39.724;2022-10-16T23:29:46;18.42;70.77
75652;HTU21D;64248;43.602;39.724;2022-10-16T23:32:13;18.39;70.82
75652;HTU21D;64248;43.602;39.724;2022-10-16T23:34:39;18.39;70.86
75652;HTU21D;64248;43.602;39.724;2022-10-16T23:37:04;18.38;70.85
75652;HTU21D;64248;43.602;39.724;2022-10-16T23:39:31;18.37;70.89
75652;HTU21D;64248;43.602;39.724;2022-10-16T23:41:57;18.36;70.83
75652;HTU21D;64248;43.602;39.724;2022-10-16T23:44:23;18.35;70.85
75652;HTU21D;64248;43.602;39.724;2022-10-16T23:46:49;18.34;70.84
75652;HTU21D;64248;43.602;39.724;2022-10-16T23:49:15;18.33;70.85
75652;HTU21D;64248;43.602;39.724;2022-10-16T23:51:41;18.30;70.88
75652;HTU21D;64248;43.602;39.724;2022-10-16T23:54:07;18.30;70.87
75652;HTU21D;64248;43.602;39.724;2022-10-16T23:56:32;18.29;70.91
75652;HTU21D;64248;43.602;39.724;2022-10-16T23:58:58;18.26;70.92
